createdAt,value
2022-12-13T05:11:36.278Z,95486.72
2022-12-13T05:14:13.570Z,95489.59
2022-12-13T05:16:41.447Z,95487.22
2022-12-13T05:19:09.095Z,95484.09
2022-12-13T05:21:36.730Z,95492.75
2022-12-13T05:24:04.670Z,95495.44
2022-12-13T05:26:32.374Z,95488.41
2022-12-13T05:29:00.098Z,95489.84
2022-12-13T05:31:27.847Z,95481.69
2022-12-13T05:33:55.533Z,95482.00
2022-12-13T05:36:30.692Z,95495.66
2022-12-13T05:38:58.366Z,95499.78
2022-12-13T05:41:29.410Z,95496.56
2022-12-13T05:43:58.034Z,95494.84
2022-12-13T05:46:25.758Z,95499.38
2022-12-13T05:48:53.412Z,95501.56
2022-12-13T05:51:21.073Z,95499.34
2022-12-13T05:53:53.297Z,95507.63
2022-12-13T05:56:22.878Z,95504.09
2022-12-13T05:58:53.359Z,95507.09
2022-12-13T06:01:22.779Z,95496.78
2022-12-13T06:03:50.481Z,95505.09
2022-12-13T06:06:18.426Z,95502.47
2022-12-13T06:08:46.215Z,95500.22
2022-12-13T06:11:31.201Z,95500.13
2022-12-13T06:14:01.080Z,95497.38
2022-12-13T06:16:29.096Z,95496.13
2022-12-13T06:19:03.736Z,95496.72
2022-12-13T06:21:41.844Z,95500.91
2022-12-13T06:24:18.633Z,95502.75
2022-12-13T06:26:46.548Z,95498.88
2022-12-13T06:29:23.496Z,95497.81
2022-12-13T06:32:02.245Z,95495.88
2022-12-13T06:34:35.777Z,95494.59
2022-12-13T06:37:07.238Z,95495.03
2022-12-13T06:39:35.462Z,95494.22
2022-12-13T06:42:06.644Z,95492.00
2022-12-13T06:44:35.557Z,95504.47
2022-12-13T06:47:11.240Z,95507.97
2022-12-13T06:49:43.385Z,95506.09
2022-12-13T06:52:12.970Z,95507.59
2022-12-13T06:54:42.558Z,95508.34
2022-12-13T06:57:14.149Z,95512.34
2022-12-13T06:59:42.308Z,95512.88
2022-12-13T07:02:10.270Z,95509.19
2022-12-13T07:04:54.284Z,95519.09
2022-12-13T07:07:22.493Z,95518.94
2022-12-13T07:09:50.152Z,95515.75
2022-12-13T07:12:19.464Z,95523.38
2022-12-13T07:14:47.268Z,95518.81
2022-12-13T15:58:37.331Z,95447.56
2022-12-13T16:01:08.251Z,95443.03
2022-12-13T16:03:44.812Z,95435.97
2022-12-13T16:06:18.750Z,95437.50
2022-12-13T16:08:54.481Z,95438.41
2022-12-13T16:11:50.362Z,95433.47
2022-12-13T16:14:35.575Z,95439.00
2022-12-13T16:17:14.677Z,95439.94
2022-12-13T16:19:42.508Z,95436.59
2022-12-13T16:22:10.124Z,95436.19
2022-12-13T16:24:40.031Z,95424.47
2022-12-13T16:27:09.908Z,95421.78
2022-12-13T16:29:37.553Z,95423.00
2022-12-13T16:32:07.924Z,95420.00
2022-12-13T16:34:39.238Z,95421.19
2022-12-13T16:37:26.772Z,95414.13
2022-12-13T16:39:56.037Z,95419.22
2022-12-13T16:42:26.983Z,95418.34
2022-12-13T16:45:40.436Z,95416.69
2022-12-13T16:47:49.621Z,95419.22
2022-12-13T16:50:20.080Z,95420.38
2022-12-13T16:52:49.111Z,95419.03
2022-12-13T16:55:16.913Z,95418.97
2022-12-13T16:57:55.682Z,95419.69
2022-12-13T17:00:23.803Z,95417.09
2022-12-13T17:02:51.537Z,95414.28
2022-12-13T17:05:19.617Z,95415.59
2022-12-13T17:07:47.291Z,95415.25
2022-12-13T17:10:16.791Z,95409.91
2022-12-13T17:12:45.106Z,95398.94
2022-12-13T17:15:13.837Z,95404.63
2022-12-13T17:17:44.069Z,95410.03
2022-12-13T17:20:17.936Z,95403.97
2022-12-13T17:22:46.784Z,95405.28
2022-12-13T17:25:15.004Z,95394.94
2022-12-13T17:27:43.120Z,95385.59
2022-12-13T17:30:15.363Z,95383.88
2022-12-13T17:32:45.901Z,95377.28
2022-12-13T17:35:18.146Z,95376.84
2022-12-13T17:37:46.476Z,95381.78
2022-12-13T17:40:14.194Z,95384.31
2022-12-13T17:42:41.868Z,95377.69
2022-12-13T17:45:09.901Z,95378.06
2022-12-13T17:47:39.468Z,95375.81
2022-12-13T17:50:09.154Z,95386.97
2022-12-13T17:52:38.810Z,95389.47
2022-12-13T17:55:07.400Z,95391.38
2022-12-13T17:57:35.634Z,95384.13
2022-12-13T18:00:04.235Z,95384.75
2022-12-13T18:02:40.462Z,95379.22
2022-12-13T18:05:10.982Z,95380.59
2022-12-13T18:07:42.296Z,95386.50
2022-12-13T18:10:18.971Z,95379.69
2022-12-13T18:12:46.606Z,95367.50
2022-12-13T18:15:14.370Z,95370.78
2022-12-13T18:18:10.100Z,95367.50
2022-12-13T18:20:30.273Z,95362.84
2022-12-13T18:22:58.658Z,95358.75
2022-12-13T18:25:26.291Z,95359.03
2022-12-13T18:28:00.629Z,95359.56
2022-12-13T18:30:31.274Z,95360.28
2022-12-13T18:32:59.341Z,95357.91
2022-12-13T18:35:27.678Z,95351.38
2022-12-13T18:37:55.341Z,95344.53
2022-12-13T18:40:22.969Z,95348.31
2022-12-13T18:42:51.039Z,95344.84
2022-12-13T18:45:19.962Z,95342.09
2022-12-13T18:47:47.636Z,95339.09
2022-12-13T18:50:15.628Z,95333.00
2022-12-13T18:52:43.991Z,95326.72
2022-12-13T18:55:11.623Z,95328.53
2022-12-13T18:57:39.357Z,95327.84
2022-12-13T19:00:08.461Z,95327.09
2022-12-13T19:02:36.337Z,95335.75
2022-12-13T19:05:05.027Z,95341.19
2022-12-13T19:07:32.708Z,95338.47
2022-12-13T19:10:00.559Z,95343.41
2022-12-13T19:12:28.443Z,95345.75
2022-12-13T19:14:56.889Z,95344.56
2022-12-13T19:17:25.114Z,95349.19
2022-12-13T19:19:54.582Z,95349.56
2022-12-13T19:22:23.521Z,95353.03
2022-12-13T19:24:51.432Z,95355.53
2022-12-13T19:27:19.964Z,95341.25
2022-12-13T19:29:48.272Z,95343.00
2022-12-13T19:32:16.102Z,95346.50
2022-12-13T19:34:43.886Z,95334.03
2022-12-13T19:37:11.769Z,95337.69
2022-12-13T19:39:39.521Z,95340.25
2022-12-13T19:42:07.277Z,95337.13
2022-12-13T19:44:35.451Z,95331.31
2022-12-13T19:47:03.518Z,95329.03
2022-12-13T19:49:31.717Z,95324.75
2022-12-13T19:52:00.450Z,95329.31
2022-12-13T19:54:28.415Z,95318.59
2022-12-13T19:56:56.168Z,95321.34
2022-12-13T19:59:23.905Z,95316.19
2022-12-13T20:01:51.656Z,95308.63
2022-12-13T20:04:19.419Z,95315.72
2022-12-13T20:06:47.087Z,95316.09
2022-12-13T20:09:14.847Z,95313.91
2022-12-13T20:11:42.576Z,95322.69
2022-12-13T20:14:10.275Z,95315.50
2022-12-13T20:16:37.993Z,95321.16
2022-12-13T20:19:05.709Z,95318.44
2022-12-13T20:21:33.540Z,95320.72
2022-12-13T20:24:01.447Z,95315.34
2022-12-13T20:26:30.469Z,95308.59
2022-12-13T20:28:58.121Z,95313.69
2022-12-13T20:31:28.984Z,95319.88
2022-12-13T20:33:58.144Z,95306.44
2022-12-13T20:36:28.011Z,95305.31
2022-12-13T20:38:57.464Z,95304.41
2022-12-13T20:41:27.502Z,95300.38
2022-12-13T20:43:57.393Z,95294.78
2022-12-13T20:46:26.735Z,95306.50
2022-12-13T20:48:55.499Z,95292.22
2022-12-13T20:51:25.575Z,95295.69
2022-12-13T20:53:54.516Z,95293.31
2022-12-13T20:56:25.317Z,95288.94
2022-12-13T20:58:52.815Z,95278.75
2022-12-13T21:01:22.957Z,95279.47
2022-12-13T21:03:56.540Z,95269.66
2022-12-13T21:06:24.430Z,95262.38
2022-12-13T21:08:52.394Z,95268.31
2022-12-13T21:11:27.287Z,95264.28
2022-12-13T21:14:06.875Z,95258.84
2022-12-13T21:16:40.299Z,95250.53
2022-12-13T21:19:10.025Z,95256.81
2022-12-13T21:21:38.029Z,95250.81
2022-12-13T21:24:06.068Z,95257.84
2022-12-13T21:26:35.970Z,95252.13
2022-12-13T21:29:06.981Z,95252.75
2022-12-13T21:31:36.199Z,95255.00
2022-12-13T21:34:05.398Z,95251.84
2022-12-13T21:36:38.297Z,95251.03
2022-12-13T21:39:08.653Z,95251.84
2022-12-13T21:41:36.373Z,95253.47
2022-12-13T21:44:04.891Z,95250.19
2022-12-13T21:47:11.966Z,95244.41
